This is the latest recevied weather packets stored in our database for station/object N2XP-3. If no packets are shown the sender has not sent any weather packets the latest 10 day(s).
| Time | Temp. | Humidity | Pressure | Rain* | Wind** | Luminosity | Snow |
|---|---|---|---|---|---|---|---|
| 1777439222 | 11.67° C | 75% | 1015.5 hPa | 0 mm | 0 m/s | - | - |
| 1777438619 | 11.67° C | 74% | 1015.3 hPa | 0 mm | 0 m/s | - | - |
| 1777438436 | 11.67° C | 73% | 1015.4 hPa | 0 mm | 0 m/s | - | - |
| 1777437709 | 11.67° C | 73% | 1015.4 hPa | 0 mm | 0 m/s | - | - |
| 1777437410 | 11.67° C | 73% | 1015.6 hPa | 0 mm | 0 m/s | - | - |
| 1777437105 | 11.67° C | 73% | 1015.7 hPa | 0 mm | 0 m/s | - | - |
| 1777436789 | 12.22° C | 73% | 1015.7 hPa | 0 mm | 0 m/s | - | - |
| 1777436487 | 12.22° C | 73% | 1015.7 hPa | 0 mm | 0 m/s | - | - |
| 1777436186 | 12.22° C | 73% | 1015.8 hPa | 0 mm | 0 m/s | - | - |
| 1777435648 | 12.22° C | 73% | 1015.5 hPa | 0 mm | 0 m/s | - | - |
| 1777435570 | 12.22° C | 73% | 1015.5 hPa | 0 mm | 0 m/s | - | - |
| 1777430028 | 12.78° C | 71% | 1014.9 hPa | 0 mm | 0 m/s | - | - |
| 1777429651 | 12.78° C | 71% | 1014.9 hPa | 0 mm | 0 m/s | - | - |
| 1777429486 | 12.78° C | 71% | 1014.9 hPa | 0 mm | 0 m/s | - | - |
| 1777425852 | 13.33° C | 67% | 1015.2 hPa | 0 mm | 0 m/s | - | - |
| 1777424037 | 13.33° C | 67% | 1015.6 hPa | 0 mm | 0 m/s | - | - |
| 1777423637 | 13.33° C | 66% | 1015.6 hPa | 0 mm | 0 m/s | - | - |
| 1777423433 | 13.33° C | 66% | 1015.6 hPa | 0 mm | 0 m/s | - | - |
| 1777422525 | 13.89° C | 65% | 1015.6 hPa | 0 mm | 0 m/s | - | - |
| 1777422357 | 13.89° C | 65% | 1015.6 hPa | 0 mm | 0 m/s | - | - |
| 1777421615 | 13.89° C | 64% | 1015.5 hPa | 0 mm | 0 m/s | - | - |
| 1777419194 | 14.44° C | 61% | 1015.6 hPa | 0 mm | 0 m/s | - | - |
| 1777414659 | 16.11° C | 53% | 1015.8 hPa | 0 mm | 1.34 m/s, 235° | - | - |
| 1777413487 | 16.67° C | 53% | 1015.8 hPa | 0 mm | 0 m/s | - | - |
| 1777412065 | 17.22° C | 50% | 1016 hPa | 0 mm | 1.79 m/s, 181° | - | - |
* Rain latest hour (hover to see other rain measurements)
** Current wind speed in m/s (hover to see current wind gust speed)